Lausanne, Switzerland

9:36 AM CET on November 27, 2014 (GMT +0100)
Lausanne | Change Station
CLOSE
Current Station
Personal Weather Station
Location: Lausanne, VAUD
Elevation: 1982 ft
Nearby Weather Stations

Elev 1982 ft 46.54 °N, 6.63 °E | Updated 22 seconds ago

Mostly Cloudy
Mostly Cloudy
48.0 °F
Feels Like 48 °F
N
0.0
Wind Variable Wind from West
Gusts 0.0 mph

Today
High -- | Low -- °F
--% Chance of Precip.
Yesterday
High -- | Low -- °F
Precip. -- in
7:51 AM 4:50 PM
Waxing Crescent, 27% visible
Pressure 29.80 in
Visibility 2.8 miles
Clouds Few 300 ft
Scattered Clouds 500 ft
Mostly Cloudy 700 ft
Windchill 48 °F
Dew Point 46 °F
Humidity 94%
Rainfall 0.00 in
Snow Depth Not available.
UV 0 out of 12
Pollen Not available.
Air Quality Not available.
Flu Activity Not available.
METAR LSGG 270820Z VRB02KT 4500 BR FEW003 SCT005 BKN007 09/09 Q1009 NOSIG

More Conditions Fewer Conditions

Pressure 29.80 in
Visibility 2.8 miles
Clouds Few 300 ft
Scattered Clouds 500 ft
Mostly Cloudy 700 ft
Windchill 48 °F
Dew Point 46 °F
Humidity 94%
Rainfall 0.00 in
Snow Depth Not available.
UV 0 out of 12
Pollen Not available.
Air Quality Not available.
Flu Activity Not available.
METAR LSGG 270820Z VRB02KT 4500 BR FEW003 SCT005 BKN007 09/09 Q1009 NOSIG

More Conditions Fewer Conditions

10-Day Weather Forecast

Almanac

Astronomy

Nov. 27, 2014 Rise Set
Actual Time
Civil Twilight
Nautical Twilight
Astronomical Twilight
Moon
Length of Visible Light
Length of Day
Tomorrow will be .
, % of the Moon is Illuminated

Today's Extremes

Country Highs Country Lows

Community

WunderPhotos

Upload Photos

1,773,965 photos uploaded!

WunderBlogs® & News

Nearby

Air Quality

  Air Quality AQ Index Pollutant
Not available.

Snow Depth

Station Depth Elevation

Earthquake Activity

City Distance Mag. Time & Date
Minimum magnitude displayed is 2.5.

Coastal Water Temperatures

Place Temperature

Nearby Weather Stations